createdAt,value
2022-12-11T00:02:07.410Z,93.26
2022-12-11T00:04:37.249Z,93.07
2022-12-11T00:07:05.837Z,93.09
2022-12-11T00:09:36.016Z,92.59
2022-12-11T00:12:05.319Z,92.11
2022-12-11T00:14:33.901Z,91.95
2022-12-11T00:17:02.395Z,91.49
2022-12-11T00:19:30.956Z,91.27
2022-12-11T00:22:00.736Z,91.02
2022-12-11T00:24:30.126Z,91.03
2022-12-11T00:26:58.664Z,91.23
2022-12-11T00:29:27.026Z,91.24
2022-12-11T00:31:55.721Z,91.31
2022-12-11T00:34:26.999Z,91.00
2022-12-11T00:36:55.392Z,91.34
2022-12-11T00:39:25.159Z,90.87
2022-12-11T00:41:53.705Z,90.84
2022-12-11T00:44:22.587Z,90.45
2022-12-11T00:46:51.103Z,90.41
2022-12-11T00:49:19.685Z,90.37
2022-12-11T00:51:48.283Z,90.37
2022-12-11T00:54:16.850Z,90.03
2022-12-11T00:56:46.685Z,90.49
2022-12-11T00:59:15.210Z,90.38
2022-12-11T01:01:43.763Z,90.23
2022-12-11T01:04:12.255Z,90.43
2022-12-11T01:06:41.124Z,90.14
2022-12-11T01:09:26.965Z,89.98
2022-12-11T01:11:56.763Z,89.63
2022-12-11T01:14:25.236Z,89.75
2022-12-11T01:16:53.849Z,89.77
2022-12-11T01:19:22.298Z,90.03
2022-12-11T01:21:50.907Z,90.12
2022-12-11T01:24:19.591Z,90.47
2022-12-11T01:26:48.372Z,90.03
2022-12-11T01:29:20.648Z,90.34
2022-12-11T01:31:49.416Z,90.76
2022-12-11T01:34:17.917Z,90.71
2022-12-11T01:36:49.586Z,90.76
2022-12-11T01:39:18.100Z,90.69
2022-12-11T01:41:47.050Z,91.07
2022-12-11T01:45:07.557Z,90.77
2022-12-11T01:47:37.762Z,90.88
2022-12-11T01:50:07.168Z,91.10
2022-12-11T01:52:35.940Z,90.59
2022-12-11T01:55:04.537Z,91.00
2022-12-11T01:57:33.667Z,90.83
2022-12-11T02:00:02.130Z,90.19
2022-12-11T02:02:43.036Z,90.42
2022-12-11T02:05:11.928Z,89.97
2022-12-11T02:07:45.756Z,89.97
2022-12-11T02:10:14.906Z,89.68
2022-12-11T02:12:56.670Z,89.79
2022-12-11T02:15:33.236Z,89.53
2022-12-11T02:18:28.254Z,89.69
2022-12-11T02:21:04.946Z,89.75
2022-12-11T02:23:57.905Z,89.87
2022-12-11T02:26:49.404Z,89.78
2022-12-11T02:29:24.266Z,90.10
2022-12-11T02:31:59.042Z,89.95
2022-12-11T02:34:33.961Z,89.89
2022-12-11T02:37:07.393Z,90.09
2022-12-11T02:39:40.587Z,89.89
2022-12-11T02:42:11.277Z,89.83
2022-12-11T02:44:42.532Z,89.82
2022-12-11T02:47:15.423Z,89.96
2022-12-11T02:49:48.727Z,89.29
2022-12-11T02:52:21.621Z,89.11
2022-12-11T02:54:53.329Z,89.40
2022-12-11T02:57:31.030Z,89.44
2022-12-11T03:00:00.876Z,89.64
2022-12-11T03:02:29.383Z,89.63
2022-12-11T03:04:57.875Z,89.87
2022-12-11T03:07:31.050Z,90.03
2022-12-11T03:09:59.625Z,90.11
2022-12-11T03:12:31.615Z,89.56
2022-12-11T03:15:03.669Z,89.96
2022-12-11T03:17:37.071Z,90.07
2022-12-11T03:20:14.188Z,90.02
2022-12-11T03:22:50.108Z,89.86
2022-12-11T03:25:23.806Z,89.72
2022-12-11T03:27:58.633Z,89.65
2022-12-11T03:30:30.434Z,89.53
2022-12-11T03:33:04.748Z,89.19
2022-12-11T03:35:37.131Z,89.11
2022-12-11T03:38:11.522Z,88.82
2022-12-11T03:40:44.395Z,88.83
2022-12-11T03:43:13.254Z,88.61
2022-12-11T03:45:44.822Z,88.08
2022-12-11T03:48:14.903Z,87.99
2022-12-11T03:50:44.671Z,87.78
2022-12-11T03:53:13.864Z,87.56
2022-12-11T03:55:43.622Z,87.30
2022-12-11T03:58:12.208Z,87.18
2022-12-11T04:00:42.226Z,86.89
2022-12-11T04:03:17.907Z,86.63
2022-12-11T04:05:48.595Z,86.55
2022-12-11T04:08:17.696Z,86.56
2022-12-11T04:10:46.245Z,86.03
2022-12-11T04:13:14.957Z,86.17
2022-12-11T04:15:43.768Z,85.78
2022-12-11T04:18:29.848Z,85.45
2022-12-11T04:21:15.997Z,85.26
2022-12-11T04:24:01.800Z,85.37
2022-12-11T04:26:30.184Z,85.18
2022-12-11T04:28:58.581Z,85.39
2022-12-11T04:31:29.957Z,84.97
2022-12-11T04:33:58.426Z,85.05
2022-12-11T04:36:26.798Z,85.26
2022-12-11T04:38:55.141Z,85.76
2022-12-11T04:41:23.557Z,85.47
2022-12-11T04:43:52.017Z,85.81
2022-12-11T04:46:23.409Z,85.59
2022-12-11T04:48:57.667Z,85.75
2022-12-11T04:51:26.447Z,85.96
2022-12-11T04:53:56.349Z,85.83
2022-12-11T04:56:24.792Z,85.93
2022-12-11T04:58:53.525Z,86.01
2022-12-11T05:01:24.012Z,86.00
2022-12-11T05:03:53.677Z,85.83
2022-12-11T05:06:22.062Z,85.05
2022-12-11T05:08:50.409Z,84.78
2022-12-11T05:11:18.763Z,84.85
2022-12-11T05:13:47.882Z,84.45
2022-12-11T05:16:18.054Z,84.20
2022-12-11T05:18:49.386Z,84.11
2022-12-11T05:21:19.459Z,84.22
2022-12-11T05:23:47.940Z,84.83
2022-12-11T05:26:18.891Z,85.16
2022-12-11T05:28:48.155Z,84.90
2022-12-11T05:31:20.579Z,84.55
2022-12-11T05:33:51.237Z,84.78
2022-12-11T05:36:25.057Z,84.21
2022-12-11T05:38:54.857Z,84.21
2022-12-11T05:41:25.483Z,84.55
2022-12-11T05:43:53.816Z,84.37
2022-12-11T05:46:24.468Z,84.41
2022-12-11T05:48:55.727Z,84.92
2022-12-11T05:51:25.813Z,84.79
2022-12-11T05:53:55.482Z,85.04
2022-12-11T05:56:26.322Z,85.34
2022-12-11T05:58:56.128Z,85.75
2022-12-11T06:01:28.797Z,85.71
2022-12-11T06:03:58.438Z,86.15
2022-12-11T06:06:29.523Z,85.96
2022-12-11T06:08:59.934Z,85.73
2022-12-11T06:11:31.269Z,86.31
2022-12-11T06:14:00.524Z,86.50
2022-12-11T06:16:28.980Z,87.06
2022-12-11T06:18:58.567Z,86.99
2022-12-11T06:21:31.536Z,87.58
2022-12-11T06:24:02.776Z,88.09
2022-12-11T06:26:32.052Z,88.24
2022-12-11T06:29:00.701Z,87.65
2022-12-11T06:31:29.335Z,87.65
2022-12-11T06:33:57.717Z,88.04
2022-12-11T06:36:28.067Z,88.12
2022-12-11T06:38:56.669Z,88.09
2022-12-11T06:41:25.152Z,87.98
2022-12-11T06:43:53.465Z,87.87
2022-12-11T06:46:22.454Z,87.49
2022-12-11T06:48:51.115Z,87.54
2022-12-11T06:51:21.898Z,87.07
2022-12-11T06:53:55.796Z,86.78
2022-12-11T06:56:25.513Z,87.69
2022-12-11T06:58:54.033Z,88.04
2022-12-11T07:01:24.864Z,88.16
2022-12-11T07:03:54.984Z,87.76
2022-12-11T07:06:24.354Z,88.11
2022-12-11T07:08:54.542Z,88.45
2022-12-11T07:11:23.251Z,88.70
2022-12-11T07:13:54.761Z,88.65
2022-12-11T07:16:23.211Z,89.06
2022-12-11T07:18:52.637Z,88.64
2022-12-11T07:21:22.159Z,88.74
2022-12-11T07:23:51.447Z,89.12
2022-12-11T07:26:23.038Z,88.89
2022-12-11T07:28:51.826Z,88.72
2022-12-11T07:31:24.047Z,87.66
2022-12-11T07:33:55.994Z,87.02
2022-12-11T07:36:25.271Z,86.39
2022-12-11T07:38:53.987Z,86.00
2022-12-11T07:41:24.859Z,85.16
2022-12-11T07:43:56.376Z,84.66
2022-12-11T07:46:29.575Z,84.54
2022-12-11T07:48:57.950Z,84.00
2022-12-11T07:51:28.762Z,84.17
2022-12-11T07:53:59.692Z,83.84
2022-12-11T07:56:31.926Z,84.09
2022-12-11T07:59:01.418Z,83.87
2022-12-11T08:01:32.605Z,83.79
2022-12-11T08:04:00.951Z,83.61
2022-12-11T08:06:31.870Z,83.62
2022-12-11T08:09:02.001Z,83.54
2022-12-11T08:11:32.109Z,82.96
2022-12-11T08:14:01.069Z,83.05
2022-12-11T08:16:29.731Z,82.53
2022-12-11T08:18:58.973Z,82.70
2022-12-11T08:21:29.314Z,81.91
2022-12-11T08:23:58.341Z,81.34
2022-12-11T08:26:29.188Z,81.29
2022-12-11T08:28:59.624Z,81.17
2022-12-11T08:31:28.427Z,81.02
2022-12-11T08:33:58.364Z,80.36
2022-12-11T08:36:27.157Z,80.62
2022-12-11T08:38:56.889Z,80.47
2022-12-11T08:41:28.424Z,80.53
2022-12-11T08:44:00.453Z,80.78
2022-12-11T08:46:31.539Z,80.52
2022-12-11T08:49:00.694Z,80.81
2022-12-11T08:51:30.798Z,80.95
2022-12-11T08:54:01.852Z,81.09
2022-12-11T08:56:30.797Z,81.65
2022-12-11T08:59:04.195Z,81.59
2022-12-11T09:01:32.757Z,81.84
2022-12-11T09:04:01.128Z,82.04
2022-12-11T09:06:33.889Z,82.36
2022-12-11T09:09:03.279Z,82.66
2022-12-11T09:11:35.650Z,82.20
2022-12-11T09:14:08.120Z,82.68
2022-12-11T09:16:41.651Z,82.67
2022-12-11T09:19:14.375Z,82.84
2022-12-11T09:21:44.198Z,83.07
2022-12-11T09:24:14.006Z,83.62
2022-12-11T09:26:43.409Z,83.55
2022-12-11T09:29:14.497Z,83.52
2022-12-11T09:31:43.308Z,83.89
2022-12-11T09:34:14.749Z,84.20
2022-12-11T09:36:44.799Z,84.47
2022-12-11T09:39:15.021Z,84.85
2022-12-11T09:41:54.413Z,84.64
2022-12-11T09:44:35.403Z,84.37
2022-12-11T09:47:03.928Z,84.41
2022-12-11T09:49:39.824Z,84.25
2022-12-11T09:52:16.035Z,84.48
2022-12-11T09:54:50.727Z,83.96
2022-12-11T09:57:46.879Z,84.17
2022-12-11T10:00:28.068Z,83.88
2022-12-11T10:03:29.244Z,84.44
2022-12-11T10:06:07.543Z,83.76
2022-12-11T10:08:43.678Z,84.19
2022-12-11T10:11:44.714Z,83.64
2022-12-11T10:14:21.099Z,83.44
2022-12-11T10:16:55.903Z,83.37
2022-12-11T10:19:29.925Z,82.73
2022-12-11T10:21:59.945Z,82.62
2022-12-11T10:25:09.288Z,82.92
2022-12-11T10:27:31.329Z,83.25
2022-12-11T10:30:09.095Z,83.39
2022-12-11T10:32:51.802Z,83.70
2022-12-11T10:35:31.347Z,84.13
2022-12-11T10:38:13.474Z,84.26
2022-12-11T10:40:48.490Z,84.74
2022-12-11T10:43:17.021Z,84.18
2022-12-11T10:45:53.529Z,84.72
2022-12-11T10:48:23.782Z,84.48
2022-12-11T10:51:01.924Z,84.53
2022-12-11T10:53:31.748Z,83.99
2022-12-11T10:56:01.136Z,84.42
2022-12-11T10:58:34.023Z,84.43
2022-12-11T11:01:09.088Z,84.04
2022-12-11T11:03:55.605Z,83.95
2022-12-11T11:06:25.894Z,84.23
2022-12-11T11:08:56.651Z,84.07
2022-12-11T11:11:33.983Z,84.15
2022-12-11T11:14:20.578Z,84.28
2022-12-11T11:16:52.394Z,84.16
2022-12-11T11:19:26.600Z,83.85
2022-12-11T11:21:57.959Z,84.01
2022-12-11T11:24:31.732Z,83.62
2022-12-11T11:27:15.495Z,83.75
2022-12-11T11:29:46.681Z,83.61
2022-12-11T11:32:24.318Z,83.85
2022-12-11T11:34:54.168Z,83.84
2022-12-11T11:37:34.939Z,83.78
2022-12-11T11:40:12.356Z,83.50
2022-12-11T11:42:48.339Z,82.98
2022-12-11T11:45:23.049Z,83.44
2022-12-11T11:48:03.134Z,82.88
2022-12-11T11:50:37.913Z,82.68
2022-12-11T11:53:13.321Z,82.98
2022-12-11T11:55:50.886Z,82.05
2022-12-11T11:58:24.219Z,82.00
2022-12-11T12:00:55.174Z,81.97
2022-12-11T12:03:26.209Z,81.75
2022-12-11T12:06:04.165Z,81.53
2022-12-11T12:08:46.221Z,81.43
2022-12-11T12:11:26.053Z,81.20
2022-12-11T12:14:22.543Z,81.46
2022-12-11T12:17:07.759Z,81.33
2022-12-11T12:19:55.714Z,81.34
2022-12-11T12:22:52.057Z,80.97
2022-12-11T12:25:28.173Z,80.64
2022-12-11T12:28:07.186Z,80.22
2022-12-11T12:30:47.240Z,80.15
2022-12-11T12:33:30.033Z,79.47
2022-12-11T12:36:08.943Z,79.79
2022-12-11T12:38:52.483Z,79.89
2022-12-11T12:41:28.113Z,79.71
2022-12-11T12:44:10.842Z,79.75
2022-12-11T12:46:51.913Z,79.57
2022-12-11T12:49:35.880Z,79.96
2022-12-11T12:52:06.716Z,80.18
2022-12-11T12:54:37.723Z,80.38
2022-12-11T12:57:06.478Z,79.88
2022-12-11T12:59:34.811Z,79.79
2022-12-11T13:02:06.698Z,79.71
2022-12-11T13:04:59.192Z,79.56
2022-12-11T13:07:31.214Z,79.87
2022-12-11T13:10:09.604Z,79.62
2022-12-11T13:12:46.684Z,80.01
2022-12-11T13:15:40.804Z,79.90
2022-12-11T13:18:36.383Z,78.97
2022-12-11T13:21:27.127Z,79.58
2022-12-11T13:23:55.994Z,79.15
2022-12-11T13:26:34.686Z,79.06
2022-12-11T13:29:03.092Z,78.62
2022-12-11T13:31:38.075Z,78.94
2022-12-11T13:34:18.496Z,78.27
2022-12-11T13:36:51.805Z,78.13
2022-12-11T13:39:24.528Z,77.83
2022-12-11T13:41:59.357Z,78.04
2022-12-11T13:44:32.881Z,78.29
2022-12-11T13:47:04.415Z,78.30
2022-12-11T13:49:38.529Z,77.11
2022-12-11T13:52:08.335Z,77.19
2022-12-11T13:54:37.589Z,77.53
2022-12-11T13:57:18.585Z,77.67
2022-12-11T13:59:51.016Z,77.53
2022-12-11T14:02:24.530Z,77.44
2022-12-11T14:04:57.808Z,77.50
2022-12-11T14:07:30.282Z,77.23
2022-12-11T14:10:04.366Z,77.46
2022-12-11T14:12:34.389Z,77.37
2022-12-11T14:15:05.733Z,77.41
2022-12-11T14:17:36.600Z,77.25
2022-12-11T14:20:08.445Z,77.16
2022-12-11T14:22:37.041Z,76.86
2022-12-11T14:25:23.391Z,77.10
2022-12-11T14:27:56.585Z,76.92
2022-12-11T14:30:28.862Z,76.78
2022-12-11T14:33:00.543Z,76.95
2022-12-11T14:35:38.399Z,76.72
2022-12-11T14:38:16.257Z,76.47
2022-12-11T14:40:51.518Z,76.34
2022-12-11T14:43:26.805Z,76.45
2022-12-11T14:46:00.518Z,76.38
2022-12-11T14:48:33.500Z,76.42
2022-12-11T14:51:06.836Z,76.82
2022-12-11T14:53:39.214Z,77.08
2022-12-11T14:56:15.403Z,77.24
2022-12-11T14:58:55.304Z,77.12
2022-12-11T15:01:27.787Z,77.20
2022-12-11T15:04:08.682Z,77.90
2022-12-11T15:06:45.904Z,77.44
2022-12-11T15:09:21.388Z,77.36
2022-12-11T15:11:51.607Z,77.49
2022-12-11T15:14:24.149Z,77.72
2022-12-11T15:16:55.450Z,77.39
2022-12-11T15:19:29.681Z,77.09
2022-12-11T15:22:05.029Z,76.94
2022-12-11T15:24:39.308Z,77.15
2022-12-11T15:27:08.406Z,77.05
2022-12-11T15:29:43.449Z,76.65
2022-12-11T15:32:20.263Z,76.59
2022-12-11T15:34:51.223Z,76.37
2022-12-11T15:37:25.491Z,75.54
2022-12-11T15:39:57.475Z,75.22
2022-12-11T15:42:32.583Z,75.06
2022-12-11T15:45:02.991Z,74.58
2022-12-11T15:47:32.901Z,74.74
2022-12-11T15:50:08.661Z,74.62
2022-12-11T15:52:37.060Z,74.46
2022-12-11T15:55:06.374Z,74.46
2022-12-11T15:57:35.451Z,74.68
2022-12-11T16:00:07.469Z,74.21
2022-12-11T16:02:36.007Z,74.48
2022-12-11T16:05:04.859Z,74.57
2022-12-11T16:07:33.349Z,74.58
2022-12-11T16:10:02.198Z,74.31
2022-12-11T16:12:30.634Z,74.34
2022-12-11T16:14:59.032Z,74.44
2022-12-11T16:17:29.057Z,74.38
2022-12-11T16:19:57.599Z,74.02
2022-12-11T16:22:25.957Z,74.08
2022-12-11T16:24:55.829Z,73.68
2022-12-11T16:27:24.910Z,73.84
2022-12-11T16:29:53.481Z,74.02
2022-12-11T16:32:21.995Z,73.63
2022-12-11T16:34:51.702Z,73.41
2022-12-11T16:37:20.204Z,73.04
2022-12-11T16:39:48.730Z,72.79
2022-12-11T16:42:17.027Z,71.86
2022-12-11T16:44:45.459Z,71.71
2022-12-11T16:47:13.922Z,71.54
2022-12-11T16:49:43.172Z,71.35
2022-12-11T16:52:15.352Z,71.39
2022-12-11T16:54:47.649Z,71.48
2022-12-11T16:57:15.979Z,71.90
2022-12-11T16:59:44.330Z,71.74
2022-12-11T17:02:13.276Z,72.26
2022-12-11T17:04:41.986Z,72.46
2022-12-11T17:07:10.434Z,72.83
2022-12-11T17:09:40.382Z,72.54
2022-12-11T17:12:10.071Z,73.99
2022-12-11T17:14:38.522Z,74.41
2022-12-11T17:17:07.115Z,74.41
2022-12-11T17:19:35.493Z,74.84
2022-12-11T17:22:04.632Z,75.58
2022-12-11T17:24:33.937Z,76.30
2022-12-11T17:27:03.663Z,76.53
2022-12-11T17:29:32.596Z,77.25
2022-12-11T17:32:03.176Z,77.52
2022-12-11T17:34:37.871Z,77.98
2022-12-11T17:37:07.228Z,78.04
2022-12-11T17:39:35.592Z,77.77
2022-12-11T17:42:05.665Z,77.30
2022-12-11T17:44:34.535Z,77.11
2022-12-11T17:47:07.681Z,76.98
2022-12-11T17:49:39.481Z,76.50
2022-12-11T17:52:08.127Z,76.36
2022-12-11T17:54:36.512Z,75.93
2022-12-11T17:57:06.823Z,75.54
2022-12-11T17:59:35.335Z,75.32
2022-12-11T18:02:03.721Z,74.75
2022-12-11T18:04:32.255Z,74.35
2022-12-11T18:07:00.669Z,74.63
2022-12-11T18:09:29.130Z,74.78
2022-12-11T18:11:57.776Z,75.82
2022-12-11T18:14:27.603Z,77.23
2022-12-11T18:16:55.969Z,77.69
2022-12-11T18:19:27.192Z,78.42
2022-12-11T18:21:56.664Z,78.79
2022-12-11T18:24:25.895Z,80.22
2022-12-11T18:26:54.513Z,81.16
2022-12-11T18:29:22.890Z,81.73
2022-12-11T18:31:52.856Z,82.25
2022-12-11T18:34:21.458Z,82.12
2022-12-11T18:36:49.796Z,82.81
2022-12-11T18:39:20.649Z,83.05
2022-12-11T18:42:03.434Z,83.00
2022-12-11T18:44:37.844Z,83.21
2022-12-11T18:47:07.899Z,84.14
2022-12-11T18:49:36.486Z,83.95
2022-12-11T18:52:05.585Z,84.39
2022-12-11T18:54:34.087Z,84.37
2022-12-11T18:57:02.404Z,84.60
2022-12-11T18:59:30.827Z,85.59
2022-12-11T19:01:59.286Z,85.05
2022-12-11T19:04:29.192Z,85.15
2022-12-11T19:06:57.914Z,85.30
2022-12-11T19:09:26.558Z,85.54
2022-12-11T19:11:55.846Z,85.55
2022-12-11T19:14:24.598Z,85.66
2022-12-11T19:16:53.538Z,85.47
2022-12-11T19:19:23.242Z,85.30
2022-12-11T19:21:53.092Z,85.28
2022-12-11T19:24:23.827Z,85.64
2022-12-11T19:26:53.085Z,85.14
2022-12-11T19:29:27.782Z,85.47
2022-12-11T19:31:56.773Z,85.78
2022-12-11T19:34:26.045Z,86.13
2022-12-11T19:36:57.302Z,86.41
2022-12-11T19:39:25.671Z,86.40
2022-12-11T19:41:53.968Z,85.84
2022-12-11T19:44:23.013Z,86.25
2022-12-11T19:46:51.554Z,86.13
2022-12-11T19:49:20.063Z,86.51
2022-12-11T19:51:48.685Z,86.34
2022-12-11T19:54:19.817Z,86.40
2022-12-11T19:56:48.487Z,86.47
2022-12-11T19:59:18.104Z,87.47
2022-12-11T20:01:49.397Z,87.86
2022-12-11T20:04:19.967Z,87.96
2022-12-11T20:06:48.909Z,88.44
2022-12-11T20:09:22.295Z,88.16
2022-12-11T20:11:50.777Z,88.95
2022-12-11T20:14:23.453Z,87.93
2022-12-11T20:17:12.805Z,88.65
2022-12-11T20:19:43.071Z,89.18
2022-12-11T20:22:11.736Z,88.91
2022-12-11T20:24:41.875Z,88.57
2022-12-11T20:27:12.379Z,88.26
2022-12-11T20:29:40.930Z,88.46
2022-12-11T20:32:12.275Z,88.42
2022-12-11T20:34:41.255Z,88.58
2022-12-11T20:37:09.735Z,88.80
2022-12-11T20:39:40.102Z,88.65
2022-12-11T20:42:11.118Z,89.04
2022-12-11T20:44:42.798Z,89.54
2022-12-11T20:47:15.700Z,90.49
2022-12-11T20:49:44.065Z,90.44
2022-12-11T20:52:12.621Z,90.29
2022-12-11T20:54:42.465Z,90.40
2022-12-11T20:57:11.333Z,90.08
2022-12-11T20:59:40.136Z,90.08
2022-12-11T21:02:09.505Z,90.12
2022-12-11T21:04:41.060Z,90.09
2022-12-11T21:07:10.564Z,90.37
2022-12-11T21:09:41.017Z,90.26
2022-12-11T21:12:09.637Z,90.32
2022-12-11T21:14:39.206Z,89.53
2022-12-11T21:17:07.626Z,89.04
2022-12-11T21:19:36.006Z,88.73
2022-12-11T21:22:04.682Z,89.06
2022-12-11T21:24:33.109Z,89.19
2022-12-11T21:27:02.820Z,89.33
2022-12-11T21:29:31.307Z,89.13
2022-12-11T21:32:02.781Z,89.64
2022-12-11T21:34:31.246Z,89.93
2022-12-11T21:36:59.900Z,90.12
2022-12-11T21:39:29.548Z,90.02
2022-12-11T21:42:00.511Z,89.76
2022-12-11T21:47:19.872Z,88.96
2022-12-11T21:49:48.516Z,88.83
2022-12-11T21:52:16.946Z,89.53
2022-12-11T21:54:45.376Z,89.79
2022-12-11T21:57:14.126Z,90.17
2022-12-11T21:59:43.921Z,90.67
2022-12-11T22:02:12.739Z,90.55
2022-12-11T22:04:42.031Z,90.56
2022-12-11T22:07:10.391Z,90.63
2022-12-11T22:09:38.799Z,90.60
2022-12-11T22:12:07.764Z,90.43
2022-12-11T22:14:36.875Z,90.66
2022-12-11T22:17:06.831Z,90.57
2022-12-11T22:19:35.159Z,90.16
2022-12-11T22:22:03.588Z,89.94
2022-12-11T22:24:32.221Z,89.73
2022-12-11T22:27:01.016Z,89.71
2022-12-11T22:29:29.752Z,90.22
2022-12-11T22:32:00.788Z,90.19
2022-12-11T22:34:30.557Z,90.39
2022-12-11T22:36:58.832Z,89.99
2022-12-11T22:39:27.233Z,89.96
2022-12-11T22:41:55.551Z,89.54
2022-12-11T22:44:24.217Z,89.51
2022-12-11T22:46:52.788Z,89.94
2022-12-11T22:49:23.138Z,89.49
2022-12-11T22:51:53.026Z,90.18
2022-12-11T22:54:24.733Z,89.68
2022-12-11T22:56:53.226Z,89.56
2022-12-11T22:59:21.523Z,89.07
2022-12-11T23:01:49.971Z,88.63
2022-12-11T23:04:18.476Z,88.17
2022-12-11T23:06:46.904Z,87.55
2022-12-11T23:09:16.758Z,87.62
2022-12-11T23:11:45.911Z,87.77
2022-12-11T23:14:19.295Z,88.13
2022-12-11T23:16:49.682Z,87.96
2022-12-11T23:19:25.243Z,88.50
2022-12-11T23:21:54.124Z,88.47
2022-12-11T23:24:24.911Z,87.88
2022-12-11T23:26:53.349Z,88.16
2022-12-11T23:29:21.775Z,87.79
2022-12-11T23:31:50.329Z,87.24
2022-12-11T23:34:18.686Z,87.49
2022-12-11T23:36:47.276Z,87.40
2022-12-11T23:39:15.712Z,87.25
2022-12-11T23:41:45.621Z,87.32
2022-12-11T23:44:14.048Z,87.26
2022-12-11T23:46:44.925Z,86.52
2022-12-11T23:49:13.390Z,86.40
2022-12-11T23:51:43.691Z,86.33
2022-12-11T23:54:12.057Z,85.52
2022-12-11T23:56:40.557Z,85.34
2022-12-11T23:59:13.317Z,85.83
